TimeEDT,TemperatureF,Dew PointF,Humidity,Sea Level PressureIn,VisibilityMPH,Wind Direction,Wind SpeedMPH,Gust SpeedMPH,PrecipitationIn,Events,Conditions,WindDirDegrees,DateUTC
12:56 AM,44.1,37.9,79,30.00,10.0,North,19.6,28.8,N/A,,Overcast,360,2013-04-24 04:56:00
1:56 AM,44.1,37.9,79,29.97,10.0,North,16.1,26.5,N/A,,Overcast,360,2013-04-24 05:56:00
2:56 AM,44.1,37.9,79,29.96,10.0,North,19.6,25.3,N/A,,Overcast,360,2013-04-24 06:56:00
3:56 AM,44.1,37.9,79,29.93,10.0,North,17.3,25.3,N/A,,Overcast,350,2013-04-24 07:56:00
4:56 AM,44.1,39.0,82,29.96,10.0,NNW,12.7,20.7,N/A,,Overcast,330,2013-04-24 08:56:00
5:56 AM,45.0,39.0,80,29.97,10.0,North,11.5,-,N/A,,Overcast,350,2013-04-24 09:56:00
6:56 AM,45.0,39.0,80,30.01,10.0,NW,9.2,-,N/A,,Overcast,310,2013-04-24 10:56:00
7:56 AM,45.0,39.0,80,30.02,10.0,NNW,12.7,19.6,N/A,,Overcast,330,2013-04-24 11:56:00
8:56 AM,46.9,39.0,74,30.01,10.0,NW,9.2,-,N/A,,Overcast,320,2013-04-24 12:56:00
9:25 AM,50.0,39.2,66,30.00,10.0,WNW,9.2,-,N/A,,Scattered Clouds,300,2013-04-24 13:25:00
9:56 AM,52.0,41.0,66,29.99,10.0,WNW,6.9,-,N/A,,Clear,300,2013-04-24 13:56:00
10:56 AM,51.1,42.1,71,29.99,10.0,WSW,16.1,-,N/A,,Clear,240,2013-04-24 14:56:00
11:56 AM,52.0,43.0,71,29.96,10.0,WSW,19.6,-,N/A,,Clear,240,2013-04-24 15:56:00
12:56 PM,55.0,43.0,64,29.94,10.0,WSW,15.0,-,N/A,,Clear,240,2013-04-24 16:56:00
1:56 PM,59.0,42.1,53,29.92,10.0,WSW,15.0,21.9,N/A,,Clear,240,2013-04-24 17:56:00
2:56 PM,55.9,43.0,62,29.91,10.0,SW,12.7,-,N/A,,Clear,230,2013-04-24 18:56:00
3:56 PM,55.9,45.0,67,29.91,8.0,SSW,11.5,-,N/A,,Clear,210,2013-04-24 19:56:00
4:56 PM,55.0,45.0,69,29.90,8.0,SSW,13.8,-,N/A,,Clear,210,2013-04-24 20:56:00
5:56 PM,52.0,45.0,77,29.92,7.0,SW,9.2,-,N/A,,Clear,220,2013-04-24 21:56:00
6:56 PM,48.9,44.1,83,29.92,5.0,SSW,9.2,-,N/A,,Haze,210,2013-04-24 22:56:00
7:18 PM,48.2,44.6,87,29.92,4.0,SW,16.1,-,N/A,,Scattered Clouds,220,2013-04-24 23:18:00
7:26 PM,48.2,44.6,87,29.91,3.0,SSW,11.5,-,N/A,,Mostly Cloudy,210,2013-04-24 23:26:00
7:56 PM,46.9,45.0,93,29.91,3.0,South,11.5,-,N/A,,Overcast,190,2013-04-24 23:56:00
8:09 PM,46.4,44.6,93,29.92,2.5,SSW,13.8,-,N/A,,Overcast,200,2013-04-25 00:09:00
8:29 PM,46.4,44.6,93,29.92,1.8,South,9.2,-,N/A,,Overcast,190,2013-04-25 00:29:00
8:39 PM,46.4,44.6,93,29.92,2.0,SSW,11.5,-,N/A,,Overcast,200,2013-04-25 00:39:00
8:56 PM,46.9,45.0,93,29.93,3.0,South,10.4,-,N/A,,Overcast,190,2013-04-25 00:56:00
9:47 PM,48.2,46.4,93,29.96,2.0,SSW,10.4,-,N/A,,Overcast,210,2013-04-25 01:47:00
9:56 PM,46.9,46.0,97,29.95,1.8,SSW,12.7,-,N/A,,Overcast,200,2013-04-25 01:56:00
10:03 PM,48.2,46.4,93,29.95,2.0,SSW,11.5,-,N/A,,Overcast,200,2013-04-25 02:03:00
10:56 PM,48.0,46.9,96,29.94,1.2,SSW,10.4,-,N/A,,Overcast,200,2013-04-25 02:56:00
11:24 PM,48.2,46.4,93,29.93,2.5,SSW,9.2,-,N/A,,Overcast,210,2013-04-25 03:24:00
11:35 PM,48.2,48.2,100,29.93,3.0,SSW,11.5,-,N/A,,Overcast,210,2013-04-25 03:35:00
11:46 PM,50.0,48.2,94,29.93,4.0,SSW,11.5,-,N/A,,Overcast,210,2013-04-25 03:46:00
11:56 PM,50.0,48.0,93,29.93,4.0,SSW,8.1,-,N/A,,Overcast,200,2013-04-25 03:56:00